Time;durP1;ratioP1;P1;durP2;ratioP2;P2;SDS_P1;SDS_P2;PMS_P1;PMS_P2;Temp;Humidity;BMP_temperature;BMP_pressure;BME280_temperature;BME280_humidity;BME280_pressure;Samples;Min_cycle;Max_cycle;Signal;HPM_P1;HPM_P2
2023/04/27 00:00:22;;;;;;;;;;;;;;;18.38;55.65;101147.78;2229941;78;50392;-75
2023/04/27 00:03:24;;;;;;;;;;;;;;;18.38;55.66;101148.30;2264652;78;51851;-75
2023/04/27 00:06:26;;;;;;;;;;;;;;;18.37;55.69;101145.27;2219281;78;51060;-75
2023/04/27 00:09:28;;;;;;;;;;;;;;;18.36;55.72;101144.44;2240579;78;50690;-74
2023/04/27 00:12:29;;;;;;;;;;;;;;;18.37;55.67;101137.23;2254366;77;51491;-74
2023/04/27 00:15:31;;;;;;;;;;;;;;;18.35;55.68;101132.06;2264320;78;50755;-73
2023/04/27 00:18:32;;;;;;;;;;;;;;;18.36;55.68;101135.06;2239434;78;52865;-74
2023/04/27 00:21:34;;;;;;;;;;;;;;;18.36;55.67;101137.73;2222277;79;51449;-75
2023/04/27 00:24:36;;;;;;;;;;;;;;;18.35;55.69;101136.59;2233642;78;50326;-73
2023/04/27 00:27:37;;;;;;;;;;;;;;;18.34;55.70;101136.23;2230792;78;50403;-75
2023/04/27 00:30:39;;;;;;;;;;;;;;;18.34;55.71;101134.42;2183898;80;50287;-73
2023/04/27 00:33:41;;;;;;;;;;;;;;;18.34;55.64;101134.42;2207026;80;50346;-74
2023/04/27 00:36:42;;;;;;;;;;;;;;;18.34;55.65;101132.22;2207162;78;50023;-73
2023/04/27 00:39:44;;;;;;;;;;;;;;;18.35;55.61;101136.59;2233446;78;50770;-74
2023/04/27 00:42:46;;;;;;;;;;;;;;;18.34;55.67;101134.42;2250307;78;50009;-74
2023/04/27 00:45:47;;;;;;;;;;;;;;;18.33;55.64;101136.74;2206840;80;50623;-73
2023/04/27 00:48:49;;;;;;;;;;;;;;;18.33;55.66;101142.10;2238064;78;50360;-75
2023/04/27 00:51:50;;;;;;;;;;;;;;;18.34;55.64;101141.59;2265608;77;50295;-75
2023/04/27 00:54:52;;;;;;;;;;;;;;;18.32;55.69;101143.12;2265513;77;51680;-74
2023/04/27 00:57:55;;;;;;;;;;;;;;;18.33;55.66;101151.48;2265625;77;50269;-74
2023/04/27 01:00:56;;;;;;;;;;;;;;;18.33;55.66;101150.65;2240277;77;50774;-74
2023/04/27 01:03:58;;;;;;;;;;;;;;;18.32;55.69;101148.47;2229405;80;51442;-76
2023/04/27 01:07:01;;;;;;;;;;;;;;;18.32;55.64;101147.14;2183369;80;52330;-75
2023/04/27 01:10:03;;;;;;;;;;;;;;;18.32;55.62;101146.30;2219504;78;50757;-76
2023/04/27 01:13:05;;;;;;;;;;;;;;;18.31;55.66;101156.67;2254395;77;50220;-76
2023/04/27 01:16:06;;;;;;;;;;;;;;;18.32;55.60;101154.34;2266516;78;50298;-75
2023/04/27 01:19:08;;;;;;;;;;;;;;;18.31;55.66;101156.67;2241114;78;51503;-76
2023/04/27 01:22:10;;;;;;;;;;;;;;;18.30;55.66;101153.16;2231256;79;50517;-75
2023/04/27 01:25:11;;;;;;;;;;;;;;;18.30;55.66;101150.48;2232320;78;50508;-75
2023/04/27 01:28:13;;;;;;;;;;;;;;;18.30;55.59;101150.48;2266772;78;50465;-75
2023/04/27 01:31:15;;;;;;;;;;;;;;;18.30;55.58;101154.50;2219454;79;51176;-75
2023/04/27 01:34:17;;;;;;;;;;;;;;;18.29;55.61;101154.18;2207010;80;51547;-73
2023/04/27 01:37:18;;;;;;;;;;;;;;;18.29;55.61;101162.22;2229558;79;50420;-75
2023/04/27 01:40:20;;;;;;;;;;;;;;;18.28;55.61;101162.69;2232197;78;50214;-75
2023/04/27 01:43:21;;;;;;;;;;;;;;;18.28;55.64;101166.71;2195404;80;51159;-75
2023/04/27 01:46:23;;;;;;;;;;;;;;;18.28;55.59;101164.03;2229363;80;50282;-75
2023/04/27 01:49:25;;;;;;;;;;;;;;;18.27;55.60;101167.73;2207032;80;50242;-75
2023/04/27 01:52:27;;;;;;;;;;;;;;;18.29;55.60;101172.93;2255122;78;50054;-75
2023/04/27 01:55:28;;;;;;;;;;;;;;;18.27;55.58;101166.39;2216151;78;52581;-74
2023/04/27 01:58:30;;;;;;;;;;;;;;;18.27;55.59;101174.42;2229917;78;51476;-75
2023/04/27 02:01:31;;;;;;;;;;;;;;;18.27;55.57;101178.95;2235116;78;51438;-75
2023/04/27 02:04:35;;;;;;;;;;;;;;;18.26;55.58;101177.26;2235289;78;51404;-72
2023/04/27 02:07:36;;;;;;;;;;;;;;;18.26;55.60;101174.10;2266414;78;50043;-75
2023/04/27 02:10:38;;;;;;;;;;;;;;;18.24;55.64;101178.78;2250465;78;50695;-75
2023/04/27 02:13:39;;;;;;;;;;;;;;;18.23;55.63;101181.11;2230916;79;51449;-74
2023/04/27 02:16:41;;;;;;;;;;;;;;;18.24;55.63;101195.36;2219125;78;50735;-75
2023/04/27 02:19:43;;;;;;;;;;;;;;;18.25;55.59;101192.50;2210926;78;50968;-72
2023/04/27 02:22:44;;;;;;;;;;;;;;;18.23;55.56;101194.50;2222437;79;50753;-75
2023/04/27 02:25:46;;;;;;;;;;;;;;;18.24;55.55;101190.84;2243380;79;50366;-75
2023/04/27 02:28:48;;;;;;;;;;;;;;;18.24;55.55;101194.03;2220909;79;50520;-75
2023/04/27 02:31:50;;;;;;;;;;;;;;;18.23;55.55;101202.54;2243561;79;51564;-76
2023/04/27 02:34:52;;;;;;;;;;;;;;;18.24;55.52;101202.89;2243362;79;51446;-74
2023/04/27 02:37:53;;;;;;;;;;;;;;;18.25;55.54;101205.06;2210967;79;51498;-75
2023/04/27 02:40:55;;;;;;;;;;;;;;;18.21;55.51;101202.38;2240990;78;51451;-76
2023/04/27 02:43:57;;;;;;;;;;;;;;;18.22;55.54;101206.74;2213256;78;51031;-75
2023/04/27 02:46:58;;;;;;;;;;;;;;;18.21;55.53;101207.25;2255267;78;51298;-74
2023/04/27 02:50:00;;;;;;;;;;;;;;;18.20;55.56;101206.06;2230983;79;51528;-75
2023/04/27 02:53:02;;;;;;;;;;;;;;;18.19;55.60;101203.06;2242253;78;51604;-75
2023/04/27 02:56:03;;;;;;;;;;;;;;;18.20;55.53;101204.73;2219145;78;52831;-76
2023/04/27 02:59:05;;;;;;;;;;;;;;;18.22;55.51;101204.06;2212315;79;51393;-74
2023/04/27 03:02:07;;;;;;;;;;;;;;;18.20;55.52;101203.39;2229410;78;51615;-73
2023/04/27 03:05:08;;;;;;;;;;;;;;;18.19;55.55;101213.78;2229254;80;51515;-74
2023/04/27 03:08:10;;;;;;;;;;;;;;;18.18;55.54;101208.90;2185893;80;51945;-75
2023/04/27 03:11:11;;;;;;;;;;;;;;;18.19;55.52;101215.95;2243023;78;51389;-73
2023/04/27 03:14:13;;;;;;;;;;;;;;;18.19;55.52;101215.12;2265178;78;51448;-74
2023/04/27 03:17:15;;;;;;;;;;;;;;;18.19;55.52;101217.80;2266751;78;50739;-74
2023/04/27 03:20:16;;;;;;;;;;;;;;;18.17;55.54;101217.95;2207060;80;52755;-75
2023/04/27 03:23:18;;;;;;;;;;;;;;;18.19;55.48;101217.80;2231089;78;50567;-75
2023/04/27 03:26:20;;;;;;;;;;;;;;;18.18;55.46;101221.45;2210900;79;51689;-74
2023/04/27 03:29:21;;;;;;;;;;;;;;;18.17;55.50;101222.48;2210306;79;50676;-74
2023/04/27 03:32:23;;;;;;;;;;;;;;;18.18;55.49;101217.44;2208223;80;51708;-74
2023/04/27 03:35:25;;;;;;;;;;;;;;;18.18;55.41;101220.95;2208315;79;50764;-75
2023/04/27 03:38:26;;;;;;;;;;;;;;;18.16;55.47;101228.81;2208589;78;51457;-74
2023/04/27 03:41:28;;;;;;;;;;;;;;;18.16;55.47;101229.68;2252632;78;51413;-74
2023/04/27 03:44:33;;;;;;;;;;;;;;;18.17;55.46;101232.68;2216165;79;51742;-74
2023/04/27 03:47:34;;;;;;;;;;;;;;;18.15;55.48;101233.34;2234879;78;51868;-74
2023/04/27 03:50:36;;;;;;;;;;;;;;;18.15;55.49;101229.33;2245819;78;51383;-74
2023/04/27 03:53:37;;;;;;;;;;;;;;;18.15;55.45;101241.38;2230770;78;51494;-75
2023/04/27 03:56:39;;;;;;;;;;;;;;;18.13;55.50;101236.68;2232519;78;50666;-75
2023/04/27 03:59:41;;;;;;;;;;;;;;;18.14;55.49;101246.92;2232928;78;50318;-75
2023/04/27 04:02:42;;;;;;;;;;;;;;;18.13;55.48;101239.36;2268621;77;51516;-74
2023/04/27 04:05:45;;;;;;;;;;;;;;;18.12;55.48;101246.23;2264969;78;51440;-74
2023/04/27 04:08:47;;;;;;;;;;;;;;;18.13;55.45;101255.42;2233351;79;51251;-75
2023/04/27 04:11:49;;;;;;;;;;;;;;;18.14;55.47;101250.94;2249540;78;50716;-75
2023/04/27 04:14:50;;;;;;;;;;;;;;;18.13;55.48;101261.30;2246489;77;50211;-75
2023/04/27 04:17:52;;;;;;;;;;;;;;;18.13;55.44;101261.30;2258579;78;50626;-74
2023/04/27 04:20:54;;;;;;;;;;;;;;;18.14;55.44;101262.98;2237209;77;50913;-74
2023/04/27 04:23:55;;;;;;;;;;;;;;;18.13;55.41;101268.82;2244283;78;51556;-74
2023/04/27 04:26:57;;;;;;;;;;;;;;;18.13;55.42;101274.69;2244595;78;51527;-74
2023/04/27 04:29:59;;;;;;;;;;;;;;;18.13;55.42;101276.02;2241120;78;51560;-74
2023/04/27 04:33:00;;;;;;;;;;;;;;;18.12;55.39;101270.34;2210170;79;49531;-74
2023/04/27 04:36:05;;;;;;;;;;;;;;;18.13;55.34;101275.52;2208423;80;50377;-74
2023/04/27 04:39:07;;;;;;;;;;;;;;;18.13;55.36;101280.04;2207753;80;50669;-75
2023/04/27 04:42:09;;;;;;;;;;;;;;;18.11;55.40;101275.34;2229903;78;50784;-75
2023/04/27 04:45:10;;;;;;;;;;;;;;;18.11;55.43;101278.02;2250485;77;51556;-75
2023/04/27 04:48:14;;;;;;;;;;;;;;;18.12;55.39;101277.04;2261536;78;51531;-74
2023/04/27 04:51:15;;;;;;;;;;;;;;;18.10;55.42;101277.70;2265099;78;51538;-75
2023/04/27 04:54:17;;;;;;;;;;;;;;;18.12;55.35;101280.55;2264537;78;51529;-75
2023/04/27 04:57:18;;;;;;;;;;;;;;;18.11;55.37;101281.56;2244870;78;50008;-75
2023/04/27 05:00:21;;;;;;;;;;;;;;;18.11;55.38;101288.26;2231167;79;50124;-74
2023/04/27 05:03:23;;;;;;;;;;;;;;;18.12;55.35;101289.09;2245024;78;50756;-74
2023/04/27 05:06:25;;;;;;;;;;;;;;;18.10;55.40;101289.75;2242616;78;50727;-74
2023/04/27 05:09:26;;;;;;;;;;;;;;;18.11;55.37;101295.43;2220562;78;51019;-75
2023/04/27 05:12:28;;;;;;;;;;;;;;;18.11;55.34;101298.11;2265089;78;50270;-74
2023/04/27 05:15:30;;;;;;;;;;;;;;;18.11;55.34;101300.78;2249718;78;51304;-74
2023/04/27 05:18:32;;;;;;;;;;;;;;;18.11;55.32;101290.08;2231128;78;51456;-75
2023/04/27 05:21:33;;;;;;;;;;;;;;;18.12;55.32;101295.28;2207943;80;51814;-74
2023/04/27 05:24:35;;;;;;;;;;;;;;;18.10;55.27;101297.78;2230615;78;50739;-73
2023/04/27 05:27:37;;;;;;;;;;;;;;;18.10;55.32;101300.46;2261745;78;52181;-74
2023/04/27 05:30:38;;;;;;;;;;;;;;;18.11;55.26;101296.30;2266456;77;51417;-75
2023/04/27 05:33:40;;;;;;;;;;;;;;;18.11;55.28;101290.08;2266322;77;50946;-76
2023/04/27 05:36:41;;;;;;;;;;;;;;;18.12;55.24;101295.28;2262346;78;51533;-75
2023/04/27 05:39:43;;;;;;;;;;;;;;;18.12;55.27;101290.43;2264644;78;50778;-75
2023/04/27 05:42:48;;;;;;;;;;;;;;;18.11;55.26;101294.09;2260319;78;51557;-74
2023/04/27 05:45:50;;;;;;;;;;;;;;;18.12;55.26;101295.28;2245869;78;50672;-74
2023/04/27 05:48:51;;;;;;;;;;;;;;;18.14;55.21;101295.13;2231261;79;51474;-74
2023/04/27 05:51:53;;;;;;;;;;;;;;;18.13;55.19;101302.30;2219183;79;51434;-75
2023/04/27 05:54:55;;;;;;;;;;;;;;;18.14;55.21;101304.50;2241364;78;50324;-74
2023/04/27 05:57:57;;;;;;;;;;;;;;;18.14;55.15;101304.50;2218446;78;51106;-74
2023/04/27 06:00:59;;;;;;;;;;;;;;;18.13;55.11;101299.62;2244044;78;51505;-74
2023/04/27 06:04:01;;;;;;;;;;;;;;;18.15;55.14;101307.50;2267571;78;50797;-75
2023/04/27 06:07:04;;;;;;;;;;;;;;;18.15;55.07;101312.86;2239359;78;50266;-74
2023/04/27 06:10:06;;;;;;;;;;;;;;;18.15;55.05;101316.38;2241166;78;51231;-74
2023/04/27 06:13:08;;;;;;;;;;;;;;;18.15;55.10;101320.39;2216322;78;51542;-75
2023/04/27 06:16:10;;;;;;;;;;;;;;;18.15;55.04;101325.75;2242233;78;51483;-75
2023/04/27 06:19:11;;;;;;;;;;;;;;;18.16;54.95;101323.42;2277931;77;51386;-74
2023/04/27 06:22:13;;;;;;;;;;;;;;;18.19;54.89;101323.59;2218173;79;50139;-74
2023/04/27 06:25:14;;;;;;;;;;;;;;;18.21;54.83;101322.43;2252854;78;50283;-75
2023/04/27 06:28:16;;;;;;;;;;;;;;;18.35;54.57;101328.98;2258605;78;50488;-77
2023/04/27 06:31:18;;;;;;;;;;;;;;;18.43;54.46;101331.66;2267264;77;50742;-74
2023/04/27 06:34:19;;;;;;;;;;;;;;;18.39;54.60;101330.81;2265911;77;50668;-75
2023/04/27 06:37:21;;;;;;;;;;;;;;;18.40;54.65;101326.64;2254130;77;50251;-76
2023/04/27 06:40:22;;;;;;;;;;;;;;;18.33;54.87;101330.14;2240695;79;50632;-74
2023/04/27 06:43:24;;;;;;;;;;;;;;;18.39;54.72;101328.96;2249084;78;49736;-75
2023/04/27 06:46:26;;;;;;;;;;;;;;;18.37;54.63;101334.15;2230263;80;51511;-75
2023/04/27 06:49:27;;;;;;;;;;;;;;;18.37;54.65;101341.72;2234195;78;51398;-75
2023/04/27 06:52:32;;;;;;;;;;;;;;;18.39;54.55;101338.34;2241932;77;50243;-74
2023/04/27 06:55:33;;;;;;;;;;;;;;;18.38;54.59;101332.66;2222729;80;50415;-74
2023/04/27 06:58:35;;;;;;;;;;;;;;;18.35;54.66;101345.05;2202470;80;50110;-74
2023/04/27 07:01:36;;;;;;;;;;;;;;;18.36;54.68;101345.88;2251429;78;51512;-73
2023/04/27 07:04:38;;;;;;;;;;;;;;;18.44;54.44;101345.89;2238374;78;51430;-74
2023/04/27 07:07:40;;;;;;;;;;;;;;;18.37;54.38;101346.20;2209568;79;50575;-74
2023/04/27 07:10:41;;;;;;;;;;;;;;;18.38;54.53;101341.20;2255298;78;50981;-75
2023/04/27 07:13:43;;;;;;;;;;;;;;;18.42;54.38;101350.09;2257113;78;52345;-75
2023/04/27 07:16:46;;;;;;;;;;;;;;;18.38;54.55;101344.72;2252658;79;50758;-75
2023/04/27 07:19:47;;;;;;;;;;;;;;;18.42;54.49;101352.78;2253411;79;50695;-75
2023/04/27 07:22:49;;;;;;;;;;;;;;;18.40;54.51;101346.73;2247504;78;52564;-74
2023/04/27 07:25:50;;;;;;;;;;;;;;;18.40;54.49;101349.41;2225096;79;51390;-74
2023/04/27 07:28:52;;;;;;;;;;;;;;;18.40;54.37;101352.60;2226445;78;51578;-74
2023/04/27 07:31:54;;;;;;;;;;;;;;;18.39;54.40;101349.06;2242167;79;51561;-75
2023/04/27 07:34:56;;;;;;;;;;;;;;;18.40;54.36;101349.92;2214759;78;51045;-75
2023/04/27 07:38:00;;;;;;;;;;;;;;;18.42;54.26;101355.45;2202659;80;51580;-75
2023/04/27 07:41:03;;;;;;;;;;;;;;;18.41;54.16;101345.72;2244701;79;51623;-74
2023/04/27 07:44:04;;;;;;;;;;;;;;;18.43;54.14;101349.08;2227498;78;50323;-74
2023/04/27 07:47:06;;;;;;;;;;;;;;;18.47;54.08;101353.12;2179617;78;50043;-75
2023/04/27 07:50:08;;;;;;;;;;;;;;;18.50;54.13;101355.46;2201205;80;52624;-74
2023/04/27 07:53:10;;;;;;;;;;;;;;;18.49;54.19;101363.66;2224704;79;50454;-75
2023/04/27 07:56:11;;;;;;;;;;;;;;;18.43;54.16;101351.76;2225291;79;50731;-77
2023/04/27 07:59:14;;;;;;;;;;;;;;;18.41;54.21;101357.78;2202676;80;50956;-74
2023/04/27 08:02:15;;;;;;;;;;;;;;;18.44;54.00;101366.82;2202844;80;51572;-74
2023/04/27 08:05:17;;;;;;;;;;;;;;;18.40;54.04;101362.81;2210632;79;51481;-74
2023/04/27 08:08:19;;;;;;;;;;;;;;;18.42;54.06;101363.49;2210312;78;50710;-75
2023/04/27 08:11:21;;;;;;;;;;;;;;;18.45;54.02;101360.48;2238830;78;51423;-75
2023/04/27 08:14:23;;;;;;;;;;;;;;;18.48;54.02;101360.14;2245149;77;50348;-75
2023/04/27 08:17:24;;;;;;;;;;;;;;;18.50;54.05;101366.18;2210094;80;50752;-75
2023/04/27 08:20:26;;;;;;;;;;;;;;;18.47;53.97;101367.00;2212950;79;51427;-75
2023/04/27 08:23:30;;;;;;;;;;;;;;;18.46;53.94;101358.63;2213530;79;51520;-75
2023/04/27 08:26:32;;;;;;;;;;;;;;;18.47;53.83;101366.52;2189851;79;52517;-75
2023/04/27 08:29:33;;;;;;;;;;;;;;;18.47;53.89;101366.52;2239672;78;50466;-75
2023/04/27 08:32:35;;;;;;;;;;;;;;;18.43;53.94;101365.16;2233052;78;50391;-75
2023/04/27 08:35:37;;;;;;;;;;;;;;;18.43;54.01;101363.81;2243061;78;50524;-74
2023/04/27 08:38:38;;;;;;;;;;;;;;;18.43;53.96;101368.34;2246461;78;51080;-75
2023/04/27 08:41:42;;;;;;;;;;;;;;;18.39;53.98;101377.20;2240606;78;50366;-73
2023/04/27 08:44:43;;;;;;;;;;;;;;;18.38;54.06;101380.89;2240618;78;50170;-74
2023/04/27 08:47:45;;;;;;;;;;;;;;;18.39;54.04;101378.53;2261109;78;50406;-75
2023/04/27 08:50:47;;;;;;;;;;;;;;;18.38;54.02;101376.87;2244180;78;51437;-74
2023/04/27 08:53:50;;;;;;;;;;;;;;;18.37;53.95;101379.22;2231265;78;50288;-75
2023/04/27 08:56:51;;;;;;;;;;;;;;;18.37;54.00;101380.56;2260106;78;50415;-75
2023/04/27 08:59:59;;;;;;;;;;;;;;;18.34;53.99;101380.89;2268350;78;50636;-74
2023/04/27 09:03:02;;;;;;;;;;;;;;;18.32;53.97;101380.22;2237102;78;51560;-75
2023/04/27 09:06:04;;;;;;;;;;;;;;;18.31;54.01;101381.20;2244165;78;52163;-75
2023/04/27 09:09:06;;;;;;;;;;;;;;;18.31;54.01;101383.88;2257731;78;50678;-74
2023/04/27 09:12:17;;;;;;;;;;;;;;;18.32;53.97;101378.88;2234485;79;50395;-74
2023/04/27 09:15:19;;;;;;;;;;;;;;;18.32;53.88;101375.36;2211164;79;50987;-74
2023/04/27 09:18:21;;;;;;;;;;;;;;;18.34;53.86;101376.02;2222304;79;51459;-74
2023/04/27 09:21:26;;;;;;;;;;;;;;;18.34;53.75;101377.35;2244748;79;51351;-74
2023/04/27 09:24:28;;;;;;;;;;;;;;;18.34;53.74;101371.99;2244356;78;50114;-74
2023/04/27 09:27:29;;;;;;;;;;;;;;;18.31;53.73;101369.14;2210193;79;49601;-74
2023/04/27 09:30:31;;;;;;;;;;;;;;;18.33;53.76;101367.66;2209993;80;50263;-75
2023/04/27 09:33:33;;;;;;;;;;;;;;;18.30;53.76;101367.48;2228259;78;51477;-74
2023/04/27 09:36:34;;;;;;;;;;;;;;;18.29;53.81;101365.81;2248403;78;51602;-74
2023/04/27 09:39:36;;;;;;;;;;;;;;;18.28;53.84;101364.12;2268904;77;52609;-74
2023/04/27 09:42:38;;;;;;;;;;;;;;;18.28;53.85;101356.91;2202856;80;50803;-74
2023/04/27 09:45:39;;;;;;;;;;;;;;;18.27;53.88;101364.63;2222699;80;50702;-74
2023/04/27 09:48:41;;;;;;;;;;;;;;;18.27;53.83;101357.09;2227128;79;51900;-74
2023/04/27 09:51:43;;;;;;;;;;;;;;;18.25;53.81;101357.25;2220502;79;51473;-74
2023/04/27 09:54:44;;;;;;;;;;;;;;;18.25;53.88;101353.23;2244789;78;50033;-74
2023/04/27 09:57:57;;;;;;;;;;;;;;;18.26;53.83;101350.05;2232694;79;50333;-74
2023/04/27 10:01:00;;;;;;;;;;;;;;;18.28;53.80;101350.72;2211902;79;52052;-74
2023/04/27 10:04:19;;;;;;;;;;;;;;;18.27;53.80;101349.06;2221280;78;50146;-75
2023/04/27 10:07:20;;;;;;;;;;;;;;;18.27;53.84;101342.36;2219639;79;51532;-74
2023/04/27 10:10:22;;;;;;;;;;;;;;;18.26;53.79;101337.98;2324145;75;50856;-75
2023/04/27 10:13:25;;;;;;;;;;;;;;;18.30;53.76;101344.70;2297826;77;50408;-74
2023/04/27 10:16:26;;;;;;;;;;;;;;;18.28;53.82;101342.69;2277928;76;52400;-74
2023/04/27 10:19:28;;;;;;;;;;;;;;;18.27;53.76;101347.21;2297633;77;51400;-75
2023/04/27 10:22:41;;;;;;;;;;;;;;;18.27;53.80;101346.38;2302273;76;51526;-74
2023/04/27 10:25:42;;;;;;;;;;;;;;;18.28;53.81;101342.69;2286202;76;50323;-75
2023/04/27 10:28:45;;;;;;;;;;;;;;;18.25;53.78;101333.64;2305448;76;51240;-74
2023/04/27 10:31:50;;;;;;;;;;;;;;;18.26;53.77;101337.98;2337307;76;51526;-75
2023/04/27 10:34:52;;;;;;;;;;;;;;;18.25;53.88;101326.95;2331945;75;51447;-75
2023/04/27 10:37:55;;;;;;;;;;;;;;;18.26;53.77;101336.64;2332291;75;50693;-75
2023/04/27 10:41:02;;;;;;;;;;;;;;;18.26;53.79;101332.63;2332922;76;50388;-75
2023/04/27 10:44:21;;;;;;;;;;;;;;;18.28;53.81;101334.65;2333145;76;51510;-75
2023/04/27 10:47:23;;;;;;;;;;;;;;;18.26;53.79;101341.53;2330563;76;50417;-75
2023/04/27 10:50:25;;;;;;;;;;;;;;;18.24;53.81;101345.37;2297959;77;50237;-74
2023/04/27 10:53:27;;;;;;;;;;;;;;;18.26;53.81;101333.97;2252774;77;52885;-75
2023/04/27 10:56:28;;;;;;;;;;;;;;;18.23;53.84;101336.47;2297743;76;50624;-75
2023/04/27 10:59:30;;;;;;;;;;;;;;;18.22;53.85;101338.00;2328601;76;52170;-75
2023/04/27 11:02:32;;;;;;;;;;;;;;;18.22;53.83;101333.47;2337323;76;50310;-75
2023/04/27 11:05:34;;;;;;;;;;;;;;;18.22;53.86;101336.66;2311491;76;50967;-75
2023/04/27 11:08:38;;;;;;;;;;;;;;;18.20;53.87;101334.63;2293381;76;50877;-74
2023/04/27 11:11:41;;;;;;;;;;;;;;;18.19;53.90;101334.31;2297264;76;50776;-74
2023/04/27 11:14:42;;;;;;;;;;;;;;;18.20;53.87;101337.31;2297486;76;50853;-74
2023/04/27 11:17:44;;;;;;;;;;;;;;;18.20;53.89;101327.43;2276486;77;52413;-74
2023/04/27 11:20:47;;;;;;;;;;;;;;;18.24;53.87;101340.84;2298827;76;50758;-74
2023/04/27 11:23:49;;;;;;;;;;;;;;;18.21;53.85;101338.98;2298360;76;50803;-73
2023/04/27 11:26:52;;;;;;;;;;;;;;;18.23;53.77;101336.98;2276658;77;51310;-74
2023/04/27 11:29:53;;;;;;;;;;;;;;;18.26;53.78;101339.33;2284585;76;52667;-75
2023/04/27 11:32:55;;;;;;;;;;;;;;;18.29;53.68;101345.72;2313531;75;51498;-74
2023/04/27 11:35:57;;;;;;;;;;;;;;;18.29;53.61;101340.36;2318959;76;51770;-75
2023/04/27 11:39:05;;;;;;;;;;;;;;;18.26;53.63;101340.19;2276802;77;51490;-74
2023/04/27 11:42:16;;;;;;;;;;;;;;;18.26;53.72;101339.33;2277326;76;22257;-74
2023/04/27 11:45:18;;;;;;;;;;;;;;;18.25;53.70;101335.81;2321775;76;51439;-74
2023/04/27 11:48:21;;;;;;;;;;;;;;;18.25;53.58;101345.70;2312335;75;51418;-73
2023/04/27 11:51:24;;;;;;;;;;;;;;;18.24;53.68;101344.03;2297735;77;50808;-74
2023/04/27 11:54:28;;;;;;;;;;;;;;;18.23;53.61;101345.02;2274733;77;52433;-74
2023/04/27 11:57:31;;;;;;;;;;;;;;;18.21;53.64;101349.22;2300729;77;49897;-75
2023/04/27 12:00:33;;;;;;;;;;;;;;;18.23;53.72;101341.83;2274450;77;51344;-73
2023/04/27 12:03:36;;;;;;;;;;;;;;;18.20;53.78;101356.06;2299967;76;51565;-75
2023/04/27 12:06:38;;;;;;;;;;;;;;;18.18;53.79;101358.06;2268807;77;50238;-74
2023/04/27 12:09:39;;;;;;;;;;;;;;;18.20;53.76;101360.08;2302407;77;50492;-74
2023/04/27 12:12:41;;;;;;;;;;;;;;;18.21;53.75;101363.09;2313473;76;50186;-73
2023/04/27 12:15:42;;;;;;;;;;;;;;;18.22;53.67;101362.11;2301658;75;50366;-73
2023/04/27 12:18:44;;;;;;;;;;;;;;;18.20;53.74;101360.08;2264939;77;51198;-74
2023/04/27 12:21:46;;;;;;;;;;;;;;;18.21;53.71;101361.75;2269163;76;50683;-75
2023/04/27 12:24:47;;;;;;;;;;;;;;;18.21;53.70;101369.31;2300033;76;50508;-74
2023/04/27 12:27:49;;;;;;;;;;;;;;;18.20;53.61;101360.08;2298083;77;51618;-73
2023/04/27 12:30:50;;;;;;;;;;;;;;;18.18;53.64;101361.57;2276670;76;51112;-74
2023/04/27 12:33:52;;;;;;;;;;;;;;;18.20;53.61;101364.10;2308069;76;50415;-75
2023/04/27 12:36:54;;;;;;;;;;;;;;;18.20;53.57;101364.10;2317854;76;50839;-74
2023/04/27 12:39:56;;;;;;;;;;;;;;;18.19;53.61;101364.61;2298103;76;50795;-73
2023/04/27 12:42:58;;;;;;;;;;;;;;;18.22;53.62;101367.46;2283993;77;51770;-74
2023/04/27 12:46:00;;;;;;;;;;;;;;;18.22;53.59;101368.80;2302593;76;50291;-74
2023/04/27 12:49:02;;;;;;;;;;;;;;;18.25;53.54;101367.96;2276653;77;50463;-74
2023/04/27 12:52:03;;;;;;;;;;;;;;;18.22;53.50;101366.13;2298041;76;50420;-75
2023/04/27 12:55:06;;;;;;;;;;;;;;;18.22;53.46;101364.78;2303240;76;51419;-74
2023/04/27 12:58:08;;;;;;;;;;;;;;;18.20;53.59;101367.61;2330127;76;51508;-74
2023/04/27 13:01:13;;;;;;;;;;;;;;;18.21;53.54;101367.10;2311349;76;50299;-73
2023/04/27 13:04:15;;;;;;;;;;;;;;;18.22;53.54;101370.14;2296995;76;22403;-74
2023/04/27 13:07:16;;;;;;;;;;;;;;;18.21;53.53;101373.33;2328359;76;50678;-74
2023/04/27 13:10:18;;;;;;;;;;;;;;;18.19;53.57;101368.63;2335596;76;50343;-74
2023/04/27 13:13:19;;;;;;;;;;;;;;;18.20;53.52;101369.45;2341885;75;50718;-74
2023/04/27 13:16:23;;;;;;;;;;;;;;;18.20;53.48;101362.77;2321686;76;51475;-74
2023/04/27 13:19:24;;;;;;;;;;;;;;;18.21;53.46;101367.97;2298222;76;21887;-74
2023/04/27 13:22:26;;;;;;;;;;;;;;;18.23;53.42;101369.13;2297880;77;49888;-75
2023/04/27 13:25:27;;;;;;;;;;;;;;;18.21;53.49;101371.98;2299304;76;50225;-74
2023/04/27 13:28:29;;;;;;;;;;;;;;;18.22;53.45;101363.44;2297575;75;50221;-74
2023/04/27 13:31:32;;;;;;;;;;;;;;;18.21;53.47;101363.09;2275655;77;51154;-75
2023/04/27 13:34:33;;;;;;;;;;;;;;;18.22;53.43;101366.13;2283008;76;51473;-74
2023/04/27 13:37:35;;;;;;;;;;;;;;;18.22;53.38;101364.78;2306973;75;52408;-74
2023/04/27 13:40:37;;;;;;;;;;;;;;;18.23;53.39;101362.42;2274328;77;50727;-73
2023/04/27 13:43:38;;;;;;;;;;;;;;;18.22;53.31;101364.78;2300915;76;52509;-74
2023/04/27 13:46:40;;;;;;;;;;;;;;;18.21;53.27;101358.59;2338884;75;50309;-74
2023/04/27 13:49:42;;;;;;;;;;;;;;;18.20;53.25;101350.70;2338706;76;50458;-75
2023/04/27 13:52:43;;;;;;;;;;;;;;;18.21;53.26;101359.07;2341313;75;50642;-74
2023/04/27 13:55:45;;;;;;;;;;;;;;;18.21;53.17;101362.61;2324006;75;51025;-74
2023/04/27 13:58:47;;;;;;;;;;;;;;;18.20;53.31;101356.06;2326542;75;50613;-74
2023/04/27 14:01:48;;;;;;;;;;;;;;;18.21;53.17;101359.07;2276329;77;51285;-74
2023/04/27 14:04:50;;;;;;;;;;;;;;;18.23;53.20;101355.73;2312401;76;51470;-75
2023/04/27 14:07:52;;;;;;;;;;;;;;;18.22;53.20;101354.06;2306558;75;51771;-75
2023/04/27 14:10:54;;;;;;;;;;;;;;;18.22;53.05;101356.75;2283190;76;50362;-74
2023/04/27 14:13:56;;;;;;;;;;;;;;;18.26;53.06;101360.75;2304559;76;51363;-74
2023/04/27 14:16:58;;;;;;;;;;;;;;;18.22;53.06;101362.11;2276627;77;51617;-74
2023/04/27 14:19:59;;;;;;;;;;;;;;;18.21;53.07;101362.61;2251370;76;52553;-74
2023/04/27 14:23:02;;;;;;;;;;;;;;;18.21;53.19;101367.10;2298061;77;50879;-74
2023/04/27 14:26:04;;;;;;;;;;;;;;;18.19;53.14;101365.95;2300838;76;51567;-74
2023/04/27 14:29:06;;;;;;;;;;;;;;;18.21;53.08;101364.42;2276215;77;50315;-73
2023/04/27 14:32:07;;;;;;;;;;;;;;;18.17;53.17;101357.23;2251158;77;51205;-73
2023/04/27 14:35:09;;;;;;;;;;;;;;;18.20;53.17;101361.42;2276151;77;50466;-73
2023/04/27 14:38:11;;;;;;;;;;;;;;;18.18;53.05;101370.11;2314832;76;50770;-73
2023/04/27 14:41:12;;;;;;;;;;;;;;;18.15;53.09;101365.09;2336010;75;51642;-73
2023/04/27 14:44:14;;;;;;;;;;;;;;;18.14;53.18;101366.10;2298224;76;51009;-74
2023/04/27 14:47:17;;;;;;;;;;;;;;;18.14;53.20;101360.75;2301197;76;50366;-73
2023/04/27 14:50:19;;;;;;;;;;;;;;;18.14;53.16;101360.23;2344425;75;50380;-74
2023/04/27 14:53:20;;;;;;;;;;;;;;;18.13;53.20;101349.67;2341427;75;50683;-74
2023/04/27 14:56:23;;;;;;;;;;;;;;;18.14;53.19;101355.39;2341039;75;50639;-74
2023/04/27 14:59:24;;;;;;;;;;;;;;;18.13;53.22;101358.54;2341239;75;50762;-74
2023/04/27 15:02:26;;;;;;;;;;;;;;;18.12;53.26;101359.55;2341220;75;50636;-73
2023/04/27 15:05:27;;;;;;;;;;;;;;;18.12;53.24;101358.72;2340811;75;50341;-74
2023/04/27 15:08:29;;;;;;;;;;;;;;;18.12;53.28;101358.72;2341026;75;51614;-73
2023/04/27 15:11:31;;;;;;;;;;;;;;;18.11;53.30;101353.88;2341432;75;50350;-73
2023/04/27 15:14:33;;;;;;;;;;;;;;;18.10;53.28;101354.02;2331147;75;51507;-74
2023/04/27 15:17:35;;;;;;;;;;;;;;;18.12;53.31;101358.72;2310462;75;51236;-74
2023/04/27 15:20:36;;;;;;;;;;;;;;;18.11;53.30;101353.01;2275788;77;51646;-73
2023/04/27 15:23:38;;;;;;;;;;;;;;;18.12;53.28;101357.38;2276185;77;51379;-74
2023/04/27 15:26:40;;;;;;;;;;;;;;;18.09;53.32;101359.05;2336171;76;50442;-74
2023/04/27 15:29:41;;;;;;;;;;;;;;;18.10;53.30;101345.99;2336816;75;50294;-73
2023/04/27 15:32:43;;;;;;;;;;;;;;;18.10;53.31;101350.00;2313258;76;49323;-73